Silverhill, British Columbia

6:18 PM PDT on April 30, 2017 (GMT -0700)
| | Change Station

Elev -9999 ft 0.00 °N, 0.00 °E | Updated 0 second ago

Mostly Cloudy
Mostly Cloudy
°F
Feels Like °F
N
Wind Variable Wind from North
Gusts mph

Today
High -- | Low -- °F
--% Chance of Precip.
Yesterday
High -- | Low -- °F
Precip. -- in
Pressure 30.27 in
Visibility 30.0 miles
Clouds Scattered Clouds 3500 ft
Mostly Cloudy 7000 ft
Mostly Cloudy 22000 ft
Dew Point Not available.
Humidity Not available.
Rainfall --
Snow Depth Not available.
5:49 AM 8:25 PM
Waxing Crescent, 28% visible
METAR CYXX 010100Z 19012KT 30SM SCT035 BKN070 BKN220 14/05 A3026 RMK CU4AC1CI1 SLP250
Pressure 30.27 in
Visibility 30.0 miles
Clouds Scattered Clouds 3500 ft
Mostly Cloudy 7000 ft
Mostly Cloudy 22000 ft
Dew Point Not available.
Humidity Not available.
Rainfall --
Snow Depth Not available.
5:49 AM 8:25 PM
Waxing Crescent, 28% visible
METAR CYXX 010100Z 19012KT 30SM SCT035 BKN070 BKN220 14/05 A3026 RMK CU4AC1CI1 SLP250

Get Severe Weather Alerts

Thanks for signing up!

Be on the lookout for a verification email in your inbox.

You'll start receiving the daily forecast at 8 AM.

×

10-Day Weather Forecast

Almanac

Astronomy

Apr. 30, 2017 Rise Set
Actual Time
Civil Twilight
Nautical Twilight
Astronomical Twilight
Moon
Length of Visible Light
Length of Day
Tomorrow will be .
, % of the Moon is Illuminated

Today's Extremes

Country Highs Country Lows

Community

WunderPhotos

WunderBlog® & News

Nearby

Air Quality

  Air Quality AQ Index Pollutant
Not available.

Snow Depth

Station Depth Elevation

Earthquake Activity

City Distance Mag. Time & Date
Minimum magnitude displayed is 2.5.

Coastal Water Temperatures

Place Temperature

Stations

Nearby Weather Stations

Station Location Temp. Windchill Dew Point Humidity Wind Precip. Elev Updated Type
                   

Watches & Warnings

There are currently no watches in effect.